Time;durP1;ratioP1;P1;durP2;ratioP2;P2;SDS_P1;SDS_P2;PMS_P1;PMS_P2;Temp;Humidity;BMP_temperature;BMP_pressure;BME280_temperature;BME280_humidity;BME280_pressure;Samples;Min_cycle;Max_cycle;Signal;HPM_P1;HPM_P2
2022/11/11 00:00:04;;;;;;;10.40;4.40;;;8.10;99.90;;;11.28;57.44;99001.06;4919903;29;20046;-58
2022/11/11 00:02:50;;;;;;;6.97;4.37;;;8.10;99.90;;;11.27;57.67;99000.22;4932897;29;20046;-58
2022/11/11 00:05:37;;;;;;;10.17;4.83;;;8.10;99.90;;;11.26;57.54;98992.34;4926090;29;20050;-59
2022/11/11 00:08:23;;;;;;;8.77;4.20;;;8.10;99.90;;;11.28;57.36;98985.91;4910349;29;20300;-59
2022/11/11 00:11:12;;;;;;;12.63;4.70;;;8.20;99.90;;;11.28;57.79;98985.91;4909557;29;20384;-59
2022/11/11 00:13:58;;;;;;;8.33;4.53;;;8.10;99.90;;;11.25;57.58;98986.19;4911754;29;20242;-58
2022/11/11 00:26:03;;;;;;;7.70;4.00;;;8.20;99.90;;;11.27;57.35;98996.72;4913973;29;20051;-58
2022/11/11 00:29:10;;;;;;;6.97;3.77;;;8.10;99.90;;;11.24;57.47;98997.81;4911178;29;20377;-59
2022/11/11 00:41:22;;;;;;;6.57;3.90;;;8.10;99.90;;;11.27;57.79;99002.88;4910825;29;20238;-59
2022/11/11 00:44:09;;;;;;;7.60;4.57;;;8.10;99.90;;;11.28;57.96;99012.56;4909387;29;20070;-59
2022/11/11 00:53:28;;;;;;;10.23;4.27;;;8.20;99.90;;;11.26;57.05;99021.66;4891845;29;20381;-59
2022/11/11 00:56:15;;;;;;;6.40;4.70;;;8.10;99.90;;;11.27;57.43;99018.88;4910579;29;20046;-57
2022/11/11 00:59:06;;;;;;;6.10;4.20;;;8.10;99.90;;;11.23;57.34;99025.47;4903298;29;20373;-59
2022/11/11 01:01:53;;;;;;;7.87;4.13;;;8.00;99.90;;;11.15;56.93;99028.78;4931165;29;20381;-59
2022/11/11 01:04:39;;;;;;;6.73;4.30;;;7.90;99.90;;;11.09;57.23;99028.44;4928520;29;20066;-59
2022/11/11 01:07:26;;;;;;;10.77;4.00;;;7.80;99.90;;;11.00;57.14;99022.94;4913841;29;20051;-57
2022/11/11 01:10:36;;;;;;;4.97;3.57;;;7.80;99.90;;;10.97;57.42;99020.53;4910921;29;20369;-59
2022/11/11 01:13:26;;;;;;;4.87;3.50;;;7.70;99.90;;;11.00;57.63;99011.44;4909418;29;20054;-59
2022/11/11 01:16:21;;;;;;;5.43;4.03;;;7.80;99.90;;;11.04;57.62;99010.19;4912540;29;20043;-59
2022/11/11 01:19:08;;;;;;;6.30;4.03;;;7.90;99.90;;;11.04;57.40;99015.53;4922493;29;20280;-59
2022/11/11 01:21:55;;;;;;;6.07;4.20;;;7.80;99.90;;;10.98;57.38;99011.56;4907433;29;20075;-59
2022/11/11 01:24:41;;;;;;;8.30;4.60;;;7.70;99.90;;;10.94;57.54;99006.63;4911517;29;20372;-59
2022/11/11 01:27:28;;;;;;;6.10;4.17;;;7.70;99.90;;;10.90;57.38;99010.53;4910453;29;20238;-58
2022/11/11 01:30:15;;;;;;;7.93;5.23;;;7.60;99.90;;;10.86;57.62;99014.41;4907378;29;20075;-58
2022/11/11 01:33:02;;;;;;;6.97;4.13;;;7.70;99.90;;;10.84;57.21;99017.22;4911326;29;20055;-59
2022/11/11 01:35:49;;;;;;;9.83;3.73;;;7.60;99.90;;;10.79;57.74;99022.91;4909547;29;20117;-59
2022/11/11 01:38:37;;;;;;;5.17;3.40;;;7.60;99.90;;;10.73;57.69;99014.59;4907209;29;20047;-58
2022/11/11 01:41:33;;;;;;;4.70;3.93;;;7.50;99.90;;;10.70;57.99;99021.03;4910941;29;20055;-59
2022/11/11 01:44:42;;;;;;;6.27;3.40;;;7.50;99.90;;;10.68;57.59;99014.13;4908869;29;20251;-58
2022/11/11 01:49:17;;;;;;;6.03;3.53;;;7.50;99.90;;;10.72;57.65;99015.56;4910989;29;20055;-58
2022/11/11 01:50:57;;;;;;;5.90;3.33;;;7.50;99.90;;;10.77;57.76;99010.72;4906636;29;20043;-59
2022/11/11 01:53:48;;;;;;;7.60;4.57;;;7.60;99.90;;;10.78;58.13;99007.09;4905289;29;20047;-59
2022/11/11 01:56:35;;;;;;;8.70;4.20;;;7.60;99.90;;;10.79;57.72;99012.25;4910164;29;20051;-58
2022/11/11 01:59:22;;;;;;;6.43;3.57;;;7.70;99.90;;;10.81;57.84;99006.81;4909191;29;20047;-59
2022/11/11 02:02:21;;;;;;;6.27;4.30;;;7.60;99.90;;;10.84;57.63;99003.91;4925622;29;20050;-58
2022/11/11 02:08:32;;;;;;;6.43;3.80;;;7.60;99.90;;;10.77;57.71;99024.88;4907377;29;20472;-57
2022/11/11 02:14:38;;;;;;;6.87;3.60;;;7.50;99.90;;;10.67;57.78;99018.63;4907026;29;20064;-57
2022/11/11 02:17:30;;;;;;;6.00;3.83;;;7.40;99.90;;;10.71;57.40;99017.38;4910974;29;20246;-57
2022/11/11 02:20:29;;;;;;;6.40;4.27;;;7.50;99.90;;;10.73;57.63;99034.09;4909063;29;20341;-57
2022/11/11 02:23:42;;;;;;;6.30;4.13;;;7.50;99.90;;;10.74;57.51;99038.47;4911538;29;20055;-58
2022/11/11 02:26:34;;;;;;;6.60;3.90;;;7.60;99.90;;;10.80;57.25;99042.44;4908731;29;20369;-58
2022/11/11 02:29:22;;;;;;;5.77;3.93;;;7.60;99.90;;;10.83;56.88;99039.50;4911812;29;20055;-59
2022/11/11 02:32:08;;;;;;;6.63;4.20;;;7.70;99.90;;;10.87;57.04;99037.41;4909467;29;20066;-56
2022/11/11 02:34:55;;;;;;;6.37;3.90;;;7.70;99.90;;;10.87;57.07;99032.91;4907308;29;20059;-59
2022/11/11 02:37:45;;;;;;;4.97;3.70;;;7.70;99.90;;;10.81;57.22;99034.28;4912388;29;20047;-57
2022/11/11 02:41:55;;;;;;;7.83;3.63;;;7.60;99.90;;;10.77;57.26;99029.34;4919495;29;20368;-58
2022/11/11 02:43:50;;;;;;;8.80;4.93;;;7.50;99.90;;;10.68;57.05;99017.63;4906883;29;20074;-58
2022/11/11 02:46:36;;;;;;;6.43;4.33;;;7.50;99.90;;;10.63;57.55;99012.69;4910688;29;20058;-58
2022/11/11 02:49:23;;;;;;;4.83;3.50;;;7.40;99.90;;;10.56;57.46;99014.19;4909222;29;20051;-58
2022/11/11 02:52:10;;;;;;;7.53;3.20;;;7.30;99.90;;;10.52;58.09;99012.75;4906791;29;20051;-59
2022/11/11 02:54:56;;;;;;;8.70;3.97;;;7.30;99.90;;;10.58;57.48;99003.41;4909459;29;20059;-59
2022/11/11 02:57:43;;;;;;;4.60;3.10;;;7.40;99.90;;;10.62;57.51;99000.38;4908539;29;20047;-58
2022/11/11 03:00:29;;;;;;;6.83;3.70;;;7.50;99.90;;;10.66;57.45;99005.44;4912263;29;20050;-59
2022/11/11 03:03:16;;;;;;;4.43;3.30;;;7.50;99.90;;;10.67;57.43;99005.31;4929243;29;20070;-59
2022/11/11 03:06:03;;;;;;;7.43;4.73;;;7.50;99.90;;;10.71;57.30;99005.91;4917722;29;20050;-59
2022/11/11 03:08:50;;;;;;;5.37;3.50;;;7.50;99.90;;;10.73;57.64;99009.28;4906843;29;20059;-58
2022/11/11 03:11:37;;;;;;;4.90;3.63;;;7.60;99.90;;;10.72;57.54;99005.78;4909640;29;20051;-59
2022/11/11 03:14:23;;;;;;;6.60;3.90;;;7.60;99.90;;;10.72;57.62;99000.44;4908308;29;20050;-59
2022/11/11 03:23:23;;;;;;;5.10;4.13;;;7.50;99.90;;;10.71;57.34;99001.41;4909491;29;20078;-59
2022/11/11 03:26:10;;;;;;;6.23;3.60;;;7.50;99.90;;;10.71;57.26;99000.56;4914286;29;20249;-58
2022/11/11 03:28:58;;;;;;;5.03;3.73;;;7.50;99.90;;;10.72;57.33;99007.56;4912397;29;20054;-59
2022/11/11 03:31:44;;;;;;;8.17;4.60;;;7.60;99.90;;;10.73;57.64;99007.44;4909778;29;20047;-59
2022/11/11 03:34:31;;;;;;;5.60;3.50;;;7.60;99.90;;;10.74;57.46;99002.97;4913329;29;20051;-59
2022/11/11 03:40:23;;;;;;;4.87;3.10;;;7.60;99.90;;;10.76;57.43;99001.88;4910894;29;20376;-59
2022/11/11 03:43:15;;;;;;;6.50;4.00;;;7.60;99.90;;;10.75;57.40;98999.34;4912050;29;20046;-59
2022/11/11 03:46:04;;;;;;;7.30;4.97;;;7.60;99.90;;;10.69;57.17;99003.34;4910981;29;20067;-58
2022/11/11 03:48:51;;;;;;;13.73;4.40;;;7.50;99.90;;;10.62;57.42;99002.19;4914307;29;20384;-58
2022/11/11 03:51:38;;;;;;;4.17;3.40;;;7.40;99.90;;;10.59;57.21;99015.75;4912791;29;20067;-58
2022/11/11 03:54:24;;;;;;;5.60;4.03;;;7.40;99.90;;;10.59;57.44;99026.41;4908766;29;20250;-58
2022/11/11 03:57:29;;;;;;;9.23;4.97;;;7.40;99.90;;;10.61;56.93;99024.47;4914435;29;20255;-58
2022/11/11 04:00:21;;;;;;;6.77;4.00;;;7.40;99.90;;;10.55;57.12;99032.97;4921784;29;20046;-58
2022/11/11 04:16:04;;;;;;;5.87;4.03;;;7.30;99.90;;;10.52;56.62;99055.34;4912008;29;20059;-59
2022/11/11 04:21:50;;;;;;;5.63;4.20;;;7.20;99.90;;;10.40;56.91;99037.75;4914560;29;20234;-58
2022/11/11 04:27:42;;;;;;;6.07;4.50;;;7.10;99.90;;;10.35;56.45;99035.47;4909671;29;20051;-58
2022/11/11 04:30:29;;;;;;;5.00;4.00;;;7.10;99.90;;;10.33;56.78;99041.84;4913781;29;20052;-59
2022/11/11 04:33:15;;;;;;;5.80;4.17;;;7.10;99.90;;;10.34;56.59;99047.06;4911573;29;20051;-59
2022/11/11 04:36:02;;;;;;;7.90;4.57;;;7.10;99.90;;;10.34;56.89;99048.88;4909863;29;20373;-59
2022/11/11 04:41:54;;;;;;;7.73;5.50;;;7.20;99.90;;;10.40;56.90;99048.38;4911035;29;20051;-58
2022/11/11 04:48:09;;;;;;;7.70;4.83;;;7.20;99.90;;;10.35;56.81;99063.88;4911470;29;20238;-58
2022/11/11 04:50:56;;;;;;;6.23;5.00;;;7.10;99.90;;;10.33;56.66;99077.34;4914515;29;20055;-58
2022/11/11 04:53:43;;;;;;;7.23;5.10;;;7.10;99.90;;;10.31;56.45;99068.59;4910307;29;20057;-59
2022/11/11 04:56:49;;;;;;;8.13;5.10;;;7.10;99.90;;;10.30;56.55;99080.22;4911176;29;20067;-57
2022/11/11 04:59:35;;;;;;;9.67;7.57;;;7.00;99.90;;;10.30;56.48;99079.38;4918484;29;20063;-57
2022/11/11 05:08:54;;;;;;;11.87;5.50;;;7.00;99.90;;;10.22;56.29;99087.97;4923253;29;20058;-57
2022/11/11 05:08:55;;;;;;;7.10;5.00;;;6.90;99.90;;;10.17;56.53;99090.16;4911656;29;20055;-58
2022/11/11 05:11:42;;;;;;;6.77;5.87;;;6.80;99.90;;;10.10;56.52;99096.91;4907986;29;20283;-58
2022/11/11 05:26:50;;;;;;;4.50;3.30;;;6.60;99.90;;;9.88;56.46;99111.09;4912401;29;20050;-58
2022/11/11 05:29:37;;;;;;;4.90;3.83;;;6.60;99.90;;;9.87;56.74;99112.91;4910956;29;20055;-57
2022/11/11 05:32:25;;;;;;;8.17;5.70;;;6.60;99.90;;;9.92;56.64;99118.69;4908586;29;20056;-58
2022/11/11 05:35:13;;;;;;;7.03;4.57;;;6.70;99.90;;;9.99;56.26;99113.75;4910805;29;20047;-59
2022/11/11 05:38:21;;;;;;;6.53;4.17;;;6.70;99.90;;;10.01;56.32;99117.13;4909646;29;20047;-59
2022/11/11 05:41:09;;;;;;;5.83;3.60;;;6.80;99.90;;;10.00;56.60;99121.63;4913104;29;20051;-57
2022/11/11 05:43:55;;;;;;;6.87;3.80;;;6.80;99.90;;;9.98;56.62;99123.56;4909905;29;20047;-59
2022/11/11 05:46:42;;;;;;;4.20;3.27;;;6.80;99.90;;;10.00;56.93;99126.06;4908621;29;20047;-57
2022/11/11 05:49:29;;;;;;;6.87;4.73;;;6.80;99.90;;;10.00;57.01;99134.94;4912741;29;20055;-58
2022/11/11 05:52:16;;;;;;;8.17;5.20;;;6.80;99.90;;;10.00;56.78;99134.94;4907570;29;20050;-57
2022/11/11 05:55:03;;;;;;;7.70;4.27;;;6.80;99.90;;;10.00;56.84;99147.34;4908480;29;20054;-58
2022/11/11 05:57:50;;;;;;;5.00;3.40;;;6.80;99.90;;;9.97;57.21;99145.78;4912547;29;20063;-57
2022/11/11 06:00:36;;;;;;;5.00;3.57;;;6.70;99.90;;;9.98;57.02;99157.28;4918106;29;20051;-56
2022/11/11 06:03:23;;;;;;;5.63;4.30;;;6.70;99.90;;;10.00;57.01;99147.34;4927812;29;20368;-58
2022/11/11 06:06:11;;;;;;;6.27;3.77;;;6.80;99.90;;;10.01;57.17;99149.06;4921461;29;20047;-58
2022/11/11 06:08:58;;;;;;;5.60;4.10;;;6.80;99.90;;;10.01;57.01;99151.72;4909444;29;20050;-58
2022/11/11 06:11:45;;;;;;;4.90;3.20;;;6.80;99.90;;;10.01;57.08;99160.53;4910627;29;20050;-57
2022/11/11 06:14:32;;;;;;;5.83;4.10;;;6.80;99.90;;;10.02;56.90;99162.25;4908793;29;20050;-57
2022/11/11 06:17:18;;;;;;;4.50;3.53;;;6.80;99.90;;;10.03;57.14;99166.59;4907971;29;20050;-59
2022/11/11 06:20:06;;;;;;;5.07;3.83;;;6.80;99.90;;;10.04;57.00;99173.63;4910692;29;20051;-59
2022/11/11 06:22:55;;;;;;;4.93;3.43;;;6.80;99.90;;;10.05;56.62;99174.47;4909421;29;20166;-59
2022/11/11 06:28:50;;;;;;;13.87;6.67;;;6.80;99.90;;;9.99;56.72;99174.94;4909977;29;20067;-58
2022/11/11 06:31:36;;;;;;;10.47;6.43;;;6.70;99.90;;;9.95;56.88;99184.13;4908435;29;20059;-58
2022/11/11 06:34:23;;;;;;;11.43;7.03;;;6.70;99.90;;;9.94;56.58;99185.09;4911445;29;20055;-57
2022/11/11 06:37:09;;;;;;;11.57;6.57;;;6.70;99.90;;;9.92;56.68;99181.69;4909343;29;20059;-58
2022/11/11 06:39:56;;;;;;;14.80;8.30;;;6.60;99.90;;;9.88;56.88;99178.44;4908043;29;20365;-59
2022/11/11 06:42:43;;;;;;;15.40;8.13;;;6.60;99.90;;;9.90;57.11;99170.34;4911902;29;20248;-58
2022/11/11 06:45:32;;;;;;;19.60;6.83;;;6.70;99.90;;;9.92;57.24;99165.75;4909190;29;20051;-58
2022/11/11 06:48:22;;;;;;;18.60;9.33;;;6.70;99.90;;;9.95;57.17;99176.16;4907086;29;20050;-58
2022/11/11 06:51:12;;;;;;;38.80;15.20;;;6.70;99.90;;;9.95;57.46;99173.50;4911090;29;20051;-55
2022/11/11 06:53:59;;;;;;;41.83;17.47;;;6.80;99.90;;;9.94;57.67;99177.09;4907898;29;20071;-56
2022/11/11 06:56:48;;;;;;;25.27;11.43;;;6.70;99.90;;;9.96;57.57;99169.84;4906151;29;20192;-60
2022/11/11 06:59:34;;;;;;;40.70;16.13;;;6.80;99.90;;;10.01;57.59;99181.84;4913947;29;20066;-60
2022/11/11 07:02:21;;;;;;;29.30;12.73;;;6.80;99.90;;;10.03;57.34;99179.91;4928686;29;20040;-59
2022/11/11 07:05:08;;;;;;;37.37;16.67;;;6.80;99.90;;;10.04;57.50;99180.72;4924085;29;20044;-60
2022/11/11 07:07:55;;;;;;;43.33;19.90;;;6.80;99.90;;;10.04;57.50;99176.28;4911428;29;20366;-60
2022/11/11 07:10:45;;;;;;;29.17;15.60;;;6.80;99.90;;;10.08;57.26;99176.03;4906904;29;20045;-60
2022/11/11 07:13:32;;;;;;;21.53;10.03;;;6.90;99.90;;;10.11;57.32;99176.63;4910362;29;20044;-61
2022/11/11 07:16:19;;;;;;;9.27;5.00;;;6.90;99.90;;;10.16;57.45;99179.78;4909437;29;20048;-59
2022/11/11 07:19:06;;;;;;;6.83;4.20;;;7.00;99.90;;;10.21;57.61;99187.41;4907707;29;20047;-60
2022/11/11 07:21:52;;;;;;;8.10;3.57;;;7.10;99.90;;;10.24;57.71;99179.19;4911340;29;20047;-60
2022/11/11 07:24:39;;;;;;;8.03;4.10;;;7.10;99.90;;;10.26;57.67;99182.56;4909322;29;20051;-59
2022/11/11 07:27:26;;;;;;;5.67;4.47;;;7.10;99.90;;;10.29;57.57;99192.97;4907876;29;20380;-59
2022/11/11 07:30:12;;;;;;;5.97;4.43;;;7.10;99.90;;;10.33;57.52;99183.81;4911893;29;20051;-59
2022/11/11 07:32:59;;;;;;;6.43;3.93;;;7.10;99.90;;;10.37;57.93;99187.06;4909621;29;20055;-60
2022/11/11 07:35:45;;;;;;;6.23;3.40;;;7.20;99.90;;;10.40;57.69;99187.66;4907278;29;20066;-60
2022/11/11 07:38:32;;;;;;;5.13;2.83;;;7.20;99.90;;;10.46;57.91;99189.00;4910949;29;20047;-59
2022/11/11 07:41:19;;;;;;;5.67;2.23;;;7.40;99.90;;;10.55;57.54;99192.75;4909538;29;20051;-59
2022/11/11 07:44:05;;;;;;;8.30;5.50;;;7.40;99.90;;;10.66;57.55;99192.69;4907569;29;20047;-58
2022/11/11 07:46:52;;;;;;;12.27;3.63;;;7.60;99.90;;;10.74;57.75;99189.41;4911438;29;20250;-56
2022/11/11 07:49:39;;;;;;;6.17;3.17;;;7.60;99.90;;;10.79;57.77;99182.75;4908866;29;20051;-59
2022/11/11 07:52:27;;;;;;;6.53;3.50;;;7.70;99.90;;;10.86;57.48;99188.44;4907433;29;20051;-60
2022/11/11 07:55:15;;;;;;;5.03;3.47;;;7.80;99.90;;;10.94;57.42;99191.31;4907060;29;20071;-59
2022/11/11 07:58:02;;;;;;;9.73;4.40;;;7.90;99.90;;;11.02;57.50;99198.69;4908260;29;20055;-59
2022/11/11 08:00:49;;;;;;;6.37;3.37;;;7.90;99.90;;;11.08;57.46;99202.66;4920602;29;20055;-58
2022/11/11 08:03:48;;;;;;;6.83;3.73;;;8.00;99.90;;;11.13;57.44;99193.31;4928438;29;20058;-58
2022/11/11 08:06:35;;;;;;;5.93;4.17;;;8.00;99.90;;;11.16;57.39;99202.88;4914859;29;20051;-58
2022/11/11 08:09:23;;;;;;;6.73;3.33;;;8.00;99.90;;;11.16;57.49;99200.22;4908618;29;20065;-60
2022/11/11 08:15:17;;;;;;;9.90;4.13;;;8.10;99.90;;;11.27;57.14;99197.50;4910028;29;20411;-60
2022/11/11 08:18:04;;;;;;;4.80;3.00;;;8.20;99.90;;;11.31;57.43;99200.75;4914174;29;20050;-60
2022/11/11 08:20:51;;;;;;;5.60;3.10;;;8.20;99.90;;;11.32;56.58;99203.31;4923914;29;20345;-59
2022/11/11 08:23:41;;;;;;;6.23;3.50;;;8.30;99.90;;;11.38;57.11;99202.78;4909764;29;20373;-58
2022/11/11 08:26:49;;;;;;;3.67;3.00;;;8.30;99.90;;;11.39;56.67;99198.28;4912591;29;20050;-58
2022/11/11 08:29:36;;;;;;;5.20;4.20;;;8.30;99.90;;;11.38;56.84;99200.13;4911015;29;20064;-58
2022/11/11 08:32:24;;;;;;;7.50;3.37;;;8.30;99.90;;;11.40;56.74;99197.34;4914431;29;20050;-62
2022/11/11 08:35:11;;;;;;;4.50;2.70;;;8.30;99.90;;;11.43;56.61;99189.91;4910834;29;20051;-62
2022/11/11 08:38:02;;;;;;;7.63;3.10;;;8.30;99.90;;;11.47;57.16;99190.50;4910677;29;20243;-62
2022/11/11 08:40:51;;;;;;;7.40;2.73;;;8.40;99.90;;;11.52;56.96;99185.63;4913640;29;20043;-60
2022/11/11 08:43:39;;;;;;;6.43;2.80;;;8.40;99.90;;;11.56;56.77;99189.72;4911583;29;20051;-60
2022/11/11 08:46:26;;;;;;;3.53;2.73;;;8.50;99.90;;;11.61;56.80;99189.31;4910105;29;20377;-59
2022/11/11 08:49:14;;;;;;;7.20;2.97;;;8.60;99.90;;;11.66;57.04;99195.13;4913636;29;20059;-59
2022/11/11 08:52:00;;;;;;;6.40;3.60;;;8.60;99.90;;;11.72;57.10;99207.94;4911833;29;20067;-60
2022/11/11 08:54:47;;;;;;;5.63;3.13;;;8.70;99.90;;;11.78;56.80;99198.56;4907936;29;20373;-60
2022/11/11 08:57:34;;;;;;;6.23;3.00;;;8.70;99.90;;;11.83;56.69;99201.69;4911952;29;20051;-59
2022/11/11 09:00:22;;;;;;;5.13;2.77;;;8.80;99.90;;;11.91;56.89;99207.25;4921482;29;20042;-60
2022/11/11 09:03:11;;;;;;;5.60;3.40;;;8.90;99.90;;;11.99;56.67;99206.59;4928331;29;20360;-60
2022/11/11 09:05:57;;;;;;;6.63;2.70;;;9.00;99.90;;;12.06;56.76;99204.22;4923396;29;20047;-60
2022/11/11 09:08:44;;;;;;;6.20;3.23;;;9.00;99.90;;;12.13;57.06;99202.72;4911402;29;20270;-60
2022/11/11 09:11:35;;;;;;;6.27;3.47;;;9.10;99.90;;;12.20;57.01;99198.53;4908693;29;20063;-60
2022/11/11 09:14:22;;;;;;;8.43;3.50;;;9.20;99.90;;;12.24;57.43;99199.97;4912182;29;20059;-60
2022/11/11 09:17:10;;;;;;;5.80;3.70;;;9.30;99.90;;;12.31;57.05;99200.25;4910957;29;20067;-60
2022/11/11 09:19:56;;;;;;;5.00;3.40;;;9.40;99.90;;;12.38;57.06;99193.41;4909046;29;20047;-60
2022/11/11 09:22:44;;;;;;;8.53;3.93;;;9.40;99.90;;;12.44;57.47;99203.56;4912704;29;20050;-60
2022/11/11 09:25:31;;;;;;;7.80;3.57;;;9.50;99.90;;;12.51;57.21;99194.03;4909002;29;20259;-61
2022/11/11 09:28:17;;;;;;;7.17;3.90;;;9.60;99.90;;;12.59;57.17;99194.19;4908970;29;20046;-61
2022/11/11 09:31:04;;;;;;;9.53;3.77;;;9.70;99.90;;;12.67;57.43;99196.19;4912078;29;20058;-60
2022/11/11 09:34:11;;;;;;;4.70;3.17;;;9.80;99.90;;;12.77;57.30;99193.53;4908493;29;20059;-60
2022/11/11 09:36:58;;;;;;;7.97;4.20;;;9.90;99.90;;;12.84;57.60;99197.34;4912872;29;20059;-60
2022/11/11 09:39:45;;;;;;;7.70;4.17;;;10.00;99.90;;;12.90;57.40;99196.78;4910460;29;20051;-60
2022/11/11 09:42:47;;;;;;;5.33;3.37;;;10.10;99.90;;;12.95;57.21;99197.22;4909383;29;20067;-60
2022/11/11 09:46:04;;;;;;;7.77;3.40;;;10.10;99.90;;;12.99;57.18;99192.47;4910701;29;20046;-61
2022/11/11 09:49:11;;;;;;;5.53;3.33;;;10.20;99.90;;;12.99;57.24;99182.59;4908734;29;20051;-60
2022/11/11 09:52:07;;;;;;;6.37;3.13;;;10.30;99.90;;;13.07;57.38;99181.06;4911730;29;20047;-60
2022/11/11 09:55:37;;;;;;;4.70;2.50;;;10.40;99.90;;;13.13;57.72;99183.19;4909248;29;20047;-60
2022/11/11 09:58:34;;;;;;;5.30;2.63;;;10.50;99.90;;;13.27;57.36;99180.06;4875622;29;20123;-60
2022/11/11 10:01:47;;;;;;;5.20;2.73;;;10.60;99.90;;;13.33;57.17;99184.88;4888264;29;20048;-60
2022/11/11 10:05:09;;;;;;;4.87;2.67;;;10.70;99.90;;;13.41;57.25;99178.00;4929569;29;20051;-60
2022/11/11 10:08:21;;;;;;;4.03;2.45;;;10.80;99.90;;;13.49;57.02;99176.31;4888704;29;20057;-60
2022/11/11 10:12:11;;;;;;;6.07;3.10;;;10.80;99.90;;;13.55;57.08;99182.91;4890871;29;20055;-60
2022/11/11 10:15:10;;;;;;;5.90;2.53;;;10.90;99.90;;;13.68;56.70;99179.94;4891477;29;20059;-60
2022/11/11 10:18:20;;;;;;;8.23;2.93;;;11.00;99.90;;;13.76;56.93;99185.41;4890052;29;20235;-60
2022/11/11 10:21:15;;;;;;;5.13;2.50;;;11.10;99.90;;;13.87;56.71;99190.59;4892103;29;20391;-60
2022/11/11 10:24:10;;;;;;;4.25;3.05;;;11.20;99.90;;;13.94;56.55;99193.56;4890122;29;20051;-60
2022/11/11 10:27:06;;;;;;;5.67;2.63;;;11.20;99.90;;;14.01;56.43;99193.81;4892423;29;20370;-60
2022/11/11 10:29:53;;;;;;;5.67;2.53;;;11.30;99.90;;;14.04;56.13;99191.69;4890939;29;20064;-60
2022/11/11 10:32:40;;;;;;;6.17;2.80;;;11.30;99.90;;;14.09;56.00;99193.91;4889712;29;20063;-60
2022/11/11 10:35:31;;;;;;;6.53;2.70;;;11.30;99.90;;;14.16;55.94;99189.66;4892759;29;20063;-60
2022/11/11 10:39:01;;;;;;;4.15;2.70;;;11.40;99.90;;;14.23;56.35;99196.13;4890044;29;20047;-59
2022/11/11 10:41:50;;;;;;;7.32;2.90;;;11.50;99.90;;;14.32;55.88;99191.72;4892755;29;20048;-61
2022/11/11 10:44:37;;;;;;;5.03;3.20;;;11.50;99.90;;;14.36;55.95;99185.94;4889672;29;20047;-61
2022/11/11 10:47:52;;;;;;;5.22;2.38;;;11.60;99.90;;;14.40;56.22;99183.78;4887716;29;20051;-60
2022/11/11 10:51:02;;;;;;;8.38;3.00;;;11.70;99.90;;;14.50;55.96;99183.72;4890895;29;20274;-61
2022/11/11 10:54:10;;;;;;;4.68;3.50;;;11.70;99.90;;;14.58;56.00;99175.84;4886826;29;20055;-60
2022/11/11 10:57:05;;;;;;;8.00;4.43;;;11.80;99.90;;;14.62;56.46;99173.69;4888675;29;20051;-60
2022/11/11 11:00:13;;;;;;;6.80;3.90;;;11.90;99.90;;;14.63;56.40;99176.22;4911095;29;20043;-61
2022/11/11 11:03:19;;;;;;;5.57;4.13;;;11.90;99.90;;;14.69;56.30;99166.75;4929142;29;20046;-60
2022/11/11 11:06:17;;;;;;;9.65;5.40;;;11.90;99.90;;;14.72;56.38;99167.28;4916369;29;20063;-60
2022/11/11 11:09:28;;;;;;;9.18;4.78;;;11.90;99.90;;;14.73;56.29;99169.00;4910152;29;20051;-60
2022/11/11 11:12:45;;;;;;;6.38;4.65;;;12.00;99.90;;;14.77;56.20;99161.47;4910525;29;20361;-60
2022/11/11 11:15:38;;;;;;;7.80;4.75;;;12.00;99.90;;;14.79;56.30;99154.09;4907067;29;20050;-60
2022/11/11 11:18:25;;;;;;;6.82;4.68;;;12.00;99.90;;;14.82;56.38;99158.34;4903923;29;20047;-60
2022/11/11 11:21:12;;;;;;;7.32;4.95;;;12.00;99.90;;;14.83;56.18;99152.84;4901891;29;20063;-61
2022/11/11 11:23:59;;;;;;;9.55;4.90;;;12.10;99.90;;;14.87;56.46;99154.22;4888064;29;20052;-61
2022/11/11 11:26:53;;;;;;;9.80;5.22;;;12.10;99.90;;;14.92;56.31;99151.91;4904290;29;20239;-61
2022/11/11 11:29:43;;;;;;;7.97;4.68;;;12.20;99.90;;;14.95;56.12;99146.25;4901962;29;20069;-61
2022/11/11 11:32:31;;;;;;;7.80;4.93;;;12.20;99.90;;;15.01;56.47;99155.53;4887718;29;20063;-61
2022/11/11 11:35:38;;;;;;;6.47;4.95;;;12.30;99.90;;;15.04;56.31;99147.16;4891161;29;20052;-60
2022/11/11 11:38:49;;;;;;;6.80;4.55;;;12.30;99.90;;;15.08;56.34;99155.75;4900582;29;20047;-60
2022/11/11 11:41:38;;;;;;;6.90;5.35;;;12.30;99.90;;;15.12;56.31;99163.34;4900939;29;20047;-61
2022/11/11 11:44:36;;;;;;;9.63;6.00;;;12.40;99.90;;;15.16;56.37;99174.63;4911571;29;20050;-60
2022/11/11 11:47:23;;;;;;;10.65;5.70;;;12.40;99.90;;;15.17;56.30;99162.88;4914483;29;20051;-60
2022/11/11 11:50:55;;;;;;;8.75;5.55;;;12.40;99.90;;;15.19;56.51;99160.03;4913008;29;20048;-61
2022/11/11 11:54:20;;;;;;;8.75;5.60;;;12.40;99.90;;;15.25;56.24;99151.38;4913413;29;20067;-61
2022/11/11 11:57:51;;;;;;;9.88;5.80;;;12.50;99.90;;;15.30;56.31;99144.56;4909190;29;20184;-61
2022/11/11 12:01:06;;;;;;;9.60;6.28;;;12.50;99.90;;;15.36;56.29;99145.78;4907841;29;20047;-61
2022/11/11 12:04:32;;;;;;;8.23;5.68;;;12.60;99.90;;;15.43;56.27;99143.31;4931866;29;20120;-61
2022/11/11 12:07:49;;;;;;;7.93;5.05;;;12.70;99.90;;;15.53;56.22;99144.91;4911925;29;20055;-61
2022/11/11 12:11:17;;;;;;;10.60;6.90;;;12.80;99.90;;;15.59;56.23;99140.75;4911846;29;20055;-61
2022/11/11 12:14:22;;;;;;;7.90;5.65;;;12.90;99.90;;;15.67;56.03;99142.66;4914018;29;20044;-61
2022/11/11 12:17:45;;;;;;;8.40;6.75;;;12.90;99.90;;;15.70;56.17;99137.81;4910903;29;20055;-61
2022/11/11 12:20:48;;;;;;;9.52;5.97;;;13.00;99.90;;;15.78;56.07;99145.13;4912542;29;20263;-61
2022/11/11 12:24:05;;;;;;;9.30;4.93;;;13.10;99.90;;;15.86;56.08;99149.69;4910445;29;20060;-61
2022/11/11 12:27:25;;;;;;;6.30;5.45;;;13.20;99.90;;;15.98;56.02;99152.97;4912237;29;20047;-61
2022/11/11 12:30:27;;;;;;;10.68;5.65;;;13.30;99.90;;;16.03;55.58;99143.44;4907993;29;20050;-61
2022/11/11 12:33:25;;;;;;;8.10;5.55;;;13.40;99.90;;;16.05;55.38;99148.59;4911536;29;20060;-61
2022/11/11 12:36:26;;;;;;;8.00;5.05;;;13.40;99.70;;;16.09;55.39;99150.84;4908862;29;20055;-61
2022/11/11 12:39:59;;;;;;;10.05;6.10;;;13.40;99.30;;;16.13;55.63;99146.81;4912977;29;20051;-61
2022/11/11 12:43:13;;;;;;;9.70;5.45;;;13.50;98.60;;;16.21;55.19;99151.41;4909198;29;20045;-61
2022/11/11 12:46:53;;;;;;;10.43;6.07;;;13.50;99.00;;;16.23;55.22;99145.88;4911850;29;20063;-61
2022/11/11 12:49:49;;;;;;;8.48;5.55;;;13.50;97.60;;;16.29;54.78;99145.22;4902260;29;20078;-61
2022/11/11 12:53:09;;;;;;;10.27;6.25;;;13.50;98.40;;;16.26;55.12;99146.38;4907970;29;20067;-61
2022/11/11 12:56:44;;;;;;;12.75;5.85;;;13.60;97.70;;;16.26;55.22;99148.22;4913211;29;20048;-61
2022/11/11 12:59:55;;;;;;;7.38;4.88;;;13.60;97.10;;;16.29;54.80;99151.44;4913332;29;20040;-61
2022/11/11 13:03:12;;;;;;;6.75;5.22;;;13.60;97.10;;;16.30;54.94;99150.44;4929333;29;20043;-61
2022/11/11 13:06:43;;;;;;;9.98;4.95;;;13.60;96.50;;;16.33;54.91;99135.81;4924617;29;20051;-61
2022/11/11 13:10:09;;;;;;;7.43;5.63;;;13.60;96.00;;;16.38;54.38;99138.03;4909248;29;20051;-61
2022/11/11 13:13:20;;;;;;;9.02;4.90;;;13.60;95.40;;;16.40;54.22;99138.69;4912003;29;20055;-61
2022/11/11 13:16:08;;;;;;;7.45;4.75;;;13.70;95.30;;;16.39;53.62;99137.03;4908930;29;20059;-61
2022/11/11 13:19:05;;;;;;;6.28;5.57;;;13.60;94.70;;;16.39;53.79;99145.09;4912576;29;20117;-60
2022/11/11 13:22:06;;;;;;;8.27;4.85;;;13.60;94.70;;;16.44;53.55;99135.53;4910323;29;20371;-60
2022/11/11 13:24:55;;;;;;;7.00;4.75;;;13.70;94.80;;;16.45;53.55;99133.69;4911714;29;20207;-61
2022/11/11 13:28:05;;;;;;;9.27;4.75;;;13.60;94.40;;;16.47;53.54;99127.13;4910385;29;20055;-61
2022/11/11 13:31:08;;;;;;;8.27;4.28;;;13.70;93.80;;;16.50;53.44;99117.94;4907638;29;20063;-61
2022/11/11 13:34:03;;;;;;;7.28;4.75;;;13.70;94.60;;;16.53;53.49;99121.09;4910727;29;20377;-61
2022/11/11 13:36:54;;;;;;;6.72;4.68;;;13.70;94.00;;;16.54;53.35;99133.56;4909036;29;20075;-60
2022/11/11 13:39:48;;;;;;;9.80;5.10;;;13.80;94.20;;;16.57;53.50;99116.25;4910858;29;20055;-61
2022/11/11 13:42:49;;;;;;;5.68;4.18;;;13.80;93.90;;;16.62;53.44;99124.66;4909615;29;20377;-60
2022/11/11 13:45:42;;;;;;;9.43;5.65;;;13.80;93.60;;;16.68;53.14;99131.25;4911730;29;20229;-60